createdAt,value
2017-07-10T21:18:35.981Z,52.60
2017-07-10T21:21:03.520Z,52.80
2017-07-10T21:23:31.152Z,52.80
2017-07-10T21:25:58.633Z,52.90
2017-07-10T21:28:26.371Z,53.80
2017-07-10T21:30:53.915Z,53.00
2017-07-10T21:33:21.402Z,51.90
2017-07-10T21:35:48.913Z,51.80
2017-07-10T21:38:17.185Z,51.90
2017-07-10T21:40:45.488Z,52.30
2017-07-10T21:43:13.028Z,52.20
2017-07-10T21:45:40.591Z,52.40
2017-07-10T21:48:08.864Z,52.20
2017-07-10T21:50:37.482Z,52.30
2017-07-10T21:53:04.980Z,52.30
2017-07-10T21:55:32.802Z,52.30
2017-07-10T21:58:01.208Z,52.30
2017-07-10T22:00:28.685Z,52.30
2017-07-10T22:02:56.262Z,51.90
2017-07-10T22:05:24.550Z,51.90
2017-07-10T22:07:52.230Z,51.80
2017-07-10T22:10:19.736Z,52.10
2017-07-10T22:12:47.252Z,52.30
2017-07-10T22:15:14.902Z,52.40
2017-07-10T22:17:42.463Z,52.40
2017-07-10T22:20:10.126Z,52.50
2017-07-10T22:22:37.697Z,52.50
2017-07-10T22:25:05.451Z,52.50
2017-07-10T22:27:32.979Z,52.30
2017-07-10T22:30:00.567Z,52.20
2017-07-10T22:32:28.083Z,52.10
2017-07-10T22:34:56.342Z,52.40
2017-07-10T22:37:23.904Z,52.40
2017-07-10T22:39:52.232Z,52.40
2017-07-10T22:42:19.996Z,52.40
2017-07-10T22:44:47.646Z,52.40
2017-07-10T22:47:15.215Z,52.50
2017-07-10T22:49:42.775Z,52.40
2017-07-10T22:52:10.303Z,52.30
2017-07-10T22:54:37.890Z,52.40
2017-07-10T22:57:05.419Z,52.30
2017-07-10T22:59:33.409Z,52.30
2017-07-10T23:02:00.976Z,52.40
2017-07-10T23:04:28.500Z,52.40
2017-07-10T23:06:56.091Z,52.40
2017-07-10T23:09:23.620Z,52.30
2017-07-10T23:11:51.483Z,52.30
2017-07-10T23:14:19.036Z,52.40
2017-07-10T23:16:46.556Z,52.30
2017-07-10T23:19:14.113Z,52.30
2017-07-10T23:21:41.637Z,52.30
2017-07-10T23:24:09.219Z,52.30
2017-07-10T23:26:36.764Z,52.30
2017-07-10T23:29:04.726Z,52.30
2017-07-10T23:31:32.264Z,52.30
2017-07-10T23:33:59.787Z,52.30
2017-07-10T23:36:27.348Z,52.20
2017-07-10T23:38:55.679Z,52.10
2017-07-10T23:41:23.440Z,52.10
2017-07-10T23:43:50.975Z,52.20
2017-07-10T23:46:18.507Z,52.10
2017-07-10T23:48:46.937Z,52.10
2017-07-10T23:51:14.463Z,52.10
2017-07-10T23:53:42.051Z,52.00
2017-07-10T23:56:09.580Z,51.90
2017-07-10T23:58:37.176Z,52.00
